createdAt,value
2022-11-15T00:02:15.651Z,8.73
2022-11-15T00:08:18.568Z,8.75
2022-11-15T00:14:20.536Z,8.87
2022-11-15T00:20:22.406Z,8.57
2022-11-15T00:26:24.317Z,8.62
2022-11-15T00:32:26.210Z,8.66
2022-11-15T00:38:35.222Z,8.81
2022-11-15T00:44:37.474Z,9.17
2022-11-15T00:50:39.352Z,9.24
2022-11-15T00:56:41.226Z,9.58
2022-11-15T01:02:43.131Z,9.62
2022-11-15T01:08:45.053Z,9.66
2022-11-15T01:14:46.941Z,9.78
2022-11-15T01:20:48.831Z,9.86
2022-11-15T01:26:50.825Z,9.75
2022-11-15T01:32:52.747Z,9.78
2022-11-15T01:38:59.902Z,9.94
2022-11-15T01:45:02.003Z,10.10
2022-11-15T01:51:10.553Z,10.51
2022-11-15T01:57:14.271Z,10.48
2022-11-15T02:03:16.802Z,10.48
2022-11-15T02:09:19.228Z,10.58
2022-11-15T02:15:21.974Z,10.55
2022-11-15T02:21:50.753Z,10.44
2022-11-15T02:28:17.712Z,10.06
2022-11-15T02:34:37.629Z,9.73
2022-11-15T02:40:53.672Z,9.47
2022-11-15T02:47:16.090Z,9.81
2022-11-15T02:53:18.035Z,9.63
2022-11-15T02:59:53.050Z,9.50
2022-11-15T03:06:13.950Z,9.60
2022-11-15T03:12:42.708Z,9.57
2022-11-15T03:18:54.582Z,9.93
2022-11-15T03:25:01.791Z,9.81
2022-11-15T03:31:25.095Z,9.57
2022-11-15T03:37:41.468Z,8.92
2022-11-15T03:44:11.006Z,8.51
2022-11-15T03:50:18.101Z,8.86
2022-11-15T03:56:20.073Z,9.03
2022-11-15T04:02:21.981Z,9.32
2022-11-15T04:08:23.879Z,9.53
2022-11-15T04:14:25.777Z,9.54
2022-11-15T04:20:49.062Z,9.51
2022-11-15T04:26:50.976Z,9.33
2022-11-15T04:32:52.945Z,9.28
2022-11-15T04:38:54.811Z,9.30
2022-11-15T04:44:57.015Z,9.41
2022-11-15T04:50:59.434Z,9.03
2022-11-15T04:57:01.422Z,9.06
2022-11-15T05:03:22.204Z,9.02
2022-11-15T05:09:24.157Z,8.70
2022-11-15T05:15:26.117Z,8.44
2022-11-15T05:21:28.435Z,8.52
2022-11-15T05:27:30.519Z,8.25
2022-11-15T05:33:33.594Z,8.17
2022-11-15T05:39:35.661Z,8.39
2022-11-15T05:45:37.814Z,8.73
2022-11-15T05:51:40.793Z,8.63
2022-11-15T05:57:43.024Z,8.60
2022-11-15T06:03:44.933Z,8.94
2022-11-15T06:09:46.863Z,9.21
2022-11-15T06:15:48.798Z,9.52
2022-11-15T06:21:50.683Z,9.65
2022-11-15T06:27:54.373Z,9.68
2022-11-15T06:33:56.276Z,10.01
2022-11-15T06:39:58.182Z,10.03
2022-11-15T06:46:01.433Z,9.87
2022-11-15T06:52:03.357Z,9.89
2022-11-15T06:58:05.242Z,10.05
2022-11-15T07:04:07.134Z,9.99
2022-11-15T07:10:09.827Z,10.15
2022-11-15T07:16:12.062Z,10.27
2022-11-15T07:22:13.969Z,10.19
2022-11-15T07:28:15.849Z,10.19
2022-11-15T07:34:17.938Z,10.01
2022-11-15T07:40:19.841Z,9.90
2022-11-15T07:46:21.766Z,9.85
2022-11-15T07:52:23.676Z,9.69
2022-11-15T07:58:25.563Z,9.62
2022-11-15T08:04:27.517Z,9.39
2022-11-15T08:10:30.332Z,9.34
2022-11-15T08:16:32.375Z,9.27
2022-11-15T08:22:35.000Z,9.15
2022-11-15T08:28:36.958Z,9.18
2022-11-15T08:34:39.603Z,8.94
2022-11-15T08:40:41.743Z,8.93
2022-11-15T08:46:46.163Z,9.07
2022-11-15T08:52:49.252Z,9.06
2022-11-15T08:58:51.242Z,9.26
2022-11-15T09:04:53.121Z,9.38
2022-11-15T09:10:55.039Z,9.58
2022-11-15T09:16:56.938Z,9.60
2022-11-15T09:23:04.219Z,10.20
2022-11-15T09:29:06.243Z,10.16
2022-11-15T09:35:08.395Z,10.28
2022-11-15T09:41:13.321Z,10.61
2022-11-15T09:47:52.529Z,10.76
2022-11-15T09:54:52.222Z,11.06
2022-11-15T10:00:56.113Z,11.06
2022-11-15T10:07:19.787Z,11.16
2022-11-15T10:13:27.912Z,11.69
2022-11-15T10:20:05.422Z,12.24
2022-11-15T10:26:15.920Z,12.81
2022-11-15T10:32:20.895Z,13.42
2022-11-15T10:38:22.818Z,13.77
2022-11-15T10:44:30.862Z,13.57
2022-11-15T10:50:33.948Z,13.99
2022-11-15T10:56:35.923Z,14.15
2022-11-15T11:02:57.260Z,13.89
2022-11-15T11:09:06.171Z,14.31
2022-11-15T11:15:15.855Z,14.67
2022-11-15T11:21:50.642Z,15.19
2022-11-15T11:28:12.748Z,15.40
2022-11-15T11:34:58.520Z,14.95
2022-11-15T11:41:09.190Z,14.97
2022-11-15T11:47:31.312Z,15.12
2022-11-15T11:53:48.964Z,14.93
2022-11-15T12:00:02.130Z,15.05
2022-11-15T12:06:31.080Z,15.08
2022-11-15T12:13:05.177Z,15.07
2022-11-15T12:19:09.542Z,14.94
2022-11-15T12:25:38.261Z,15.39
2022-11-15T12:31:46.344Z,15.57
2022-11-15T12:37:56.205Z,16.00
2022-11-15T12:44:00.255Z,15.94
2022-11-15T12:50:02.162Z,15.76
2022-11-15T12:56:12.996Z,15.70
2022-11-15T13:02:34.626Z,15.41
2022-11-15T13:08:48.575Z,15.26
2022-11-15T13:14:52.911Z,15.18
2022-11-15T13:20:59.415Z,14.90
2022-11-15T13:27:17.929Z,14.81
2022-11-15T13:33:38.492Z,14.75
2022-11-15T13:39:40.452Z,14.76
2022-11-15T13:45:42.370Z,14.56
2022-11-15T13:51:55.874Z,14.51
2022-11-15T13:58:01.844Z,14.33
2022-11-15T14:04:04.799Z,14.46
2022-11-15T14:10:28.698Z,14.56
2022-11-15T14:16:49.132Z,14.52
2022-11-15T14:22:56.834Z,14.47
2022-11-15T14:29:18.650Z,14.18
2022-11-15T14:35:23.655Z,14.07
2022-11-15T14:41:27.411Z,13.87
2022-11-15T14:47:29.317Z,13.66
2022-11-15T14:53:31.162Z,13.59
2022-11-15T14:59:33.039Z,13.31
2022-11-15T15:05:44.213Z,13.05
2022-11-15T15:11:46.754Z,13.13
2022-11-15T15:17:48.845Z,12.80
2022-11-15T15:23:51.938Z,12.63
2022-11-15T15:29:53.852Z,12.77
2022-11-15T15:35:55.761Z,12.48
2022-11-15T15:41:57.659Z,12.18
2022-11-15T15:47:59.647Z,12.10
2022-11-15T15:54:01.534Z,12.07
2022-11-15T16:00:05.761Z,11.82
2022-11-15T16:06:36.865Z,11.39
2022-11-15T16:12:38.782Z,11.20
2022-11-15T16:18:40.663Z,10.96
2022-11-15T16:24:42.583Z,10.89
2022-11-15T16:30:44.538Z,10.80
2022-11-15T16:36:46.439Z,11.00
2022-11-15T16:42:48.423Z,10.81
2022-11-15T16:48:50.811Z,10.79
2022-11-15T16:54:52.697Z,10.71
2022-11-15T17:00:56.987Z,10.85
2022-11-15T17:06:59.489Z,10.94
2022-11-15T17:13:01.374Z,11.13
2022-11-15T17:19:03.313Z,11.17
2022-11-15T17:25:05.920Z,11.15
2022-11-15T17:31:14.067Z,11.24
2022-11-15T17:37:15.997Z,11.45
2022-11-15T17:43:17.889Z,11.43
2022-11-15T17:49:19.764Z,11.51
2022-11-15T17:55:21.683Z,11.69
2022-11-15T18:01:30.590Z,11.42
2022-11-15T18:07:32.624Z,11.56
2022-11-15T18:13:39.536Z,11.50
2022-11-15T18:19:41.469Z,11.46
2022-11-15T18:25:43.845Z,11.48
2022-11-15T18:31:47.784Z,11.44
2022-11-15T18:37:49.867Z,11.29
2022-11-15T18:43:52.662Z,11.39
2022-11-15T18:49:54.738Z,11.35
2022-11-15T18:56:02.324Z,11.42
2022-11-15T19:02:04.389Z,11.29
2022-11-15T19:08:06.258Z,11.21
2022-11-15T19:14:13.763Z,11.15
2022-11-15T19:20:15.945Z,11.20
2022-11-15T19:26:18.056Z,11.15
2022-11-15T19:32:20.004Z,11.01
2022-11-15T19:38:23.251Z,11.21
2022-11-15T19:44:27.193Z,10.97
2022-11-15T19:50:29.087Z,10.98
2022-11-15T19:56:31.047Z,11.13
2022-11-15T20:02:32.991Z,11.05
2022-11-15T20:08:36.342Z,11.32
2022-11-15T20:14:38.529Z,11.36
2022-11-15T20:20:40.711Z,11.17
2022-11-15T20:26:43.710Z,11.16
2022-11-15T20:32:45.769Z,10.99
2022-11-15T20:38:47.673Z,10.88
2022-11-15T20:44:49.605Z,10.78
2022-11-15T20:50:51.640Z,10.79
2022-11-15T20:56:53.600Z,10.85
2022-11-15T21:02:55.590Z,10.97
2022-11-15T21:09:16.255Z,10.87
2022-11-15T21:15:18.840Z,10.88
2022-11-15T21:21:21.383Z,11.33
2022-11-15T21:27:23.298Z,11.16
2022-11-15T21:33:27.633Z,11.04
2022-11-15T21:39:29.518Z,10.88
2022-11-15T21:45:31.466Z,10.85
2022-11-15T21:51:34.174Z,10.87
2022-11-15T21:57:36.287Z,11.14
2022-11-15T22:03:38.191Z,10.85
2022-11-15T22:09:40.383Z,10.76
2022-11-15T22:15:45.820Z,10.91
2022-11-15T22:21:47.782Z,11.17
2022-11-15T22:27:49.728Z,11.22
2022-11-15T22:33:51.708Z,11.06
2022-11-15T22:39:53.621Z,10.89
2022-11-15T22:45:58.157Z,11.24
2022-11-15T22:52:00.074Z,11.13
2022-11-15T22:58:01.966Z,10.99
2022-11-15T23:04:04.203Z,11.07
2022-11-15T23:10:25.815Z,11.06
2022-11-15T23:16:34.472Z,11.22
2022-11-15T23:22:48.670Z,11.11
2022-11-15T23:28:50.592Z,10.89
2022-11-15T23:34:52.500Z,10.84
2022-11-15T23:40:55.461Z,10.65
2022-11-15T23:46:57.405Z,10.54
2022-11-15T23:52:59.357Z,10.72
2022-11-15T23:59:01.324Z,10.72
